Time;durP1;ratioP1;P1;durP2;ratioP2;P2;SDS_P1;SDS_P2;PMS_P1;PMS_P2;Temp;Humidity;BMP_temperature;BMP_pressure;BME280_temperature;BME280_humidity;BME280_pressure;Samples;Min_cycle;Max_cycle;Signal;HPM_P1;HPM_P2
2022/01/06 00:01:44;;;;;;;7.30;1.17;;;4.80;99.90;;;;;;5135579;27;20156;-75
2022/01/06 00:04:10;;;;;;;9.07;1.58;;;4.70;99.90;;;;;;5116709;27;20047;-74
2022/01/06 00:06:39;;;;;;;10.75;1.23;;;4.90;99.90;;;;;;5099462;27;20047;-75
2022/01/06 00:09:07;;;;;;;10.18;1.45;;;4.60;99.90;;;;;;5100289;27;20047;-74
2022/01/06 00:11:33;;;;;;;9.05;1.30;;;5.30;99.90;;;;;;5135239;27;20387;-74
2022/01/06 00:24:25;;;;;;;11.38;1.38;;;4.70;99.90;;;;;;5134555;27;20138;-75
2022/01/06 00:26:51;;;;;;;10.43;1.00;;;5.00;99.90;;;;;;5134543;28;20047;-74
2022/01/06 00:29:18;;;;;;;10.38;1.20;;;4.80;99.90;;;;;;5099451;28;20398;-75
2022/01/06 00:31:45;;;;;;;10.40;1.33;;;4.60;99.90;;;;;;5116352;28;20394;-75
2022/01/06 00:34:11;;;;;;;9.20;1.10;;;4.60;99.90;;;;;;5134449;28;20475;-75
2022/01/06 00:36:40;;;;;;;8.13;1.52;;;5.40;99.90;;;;;;5135215;28;20052;-75
2022/01/06 00:39:07;;;;;;;6.22;1.88;;;4.80;99.90;;;;;;5116330;28;20040;-75
2022/01/06 00:41:35;;;;;;;9.18;1.05;;;4.80;99.90;;;;;;5134426;28;20501;-75
2022/01/06 00:44:03;;;;;;;8.63;1.15;;;5.20;99.90;;;;;;5116229;28;20092;-75
2022/01/06 00:46:28;;;;;;;12.18;1.00;;;4.80;99.90;;;;;;5134379;28;20121;-75
2022/01/06 00:48:54;;;;;;;11.15;1.23;;;4.80;99.90;;;;;;5134295;28;20478;-75
2022/01/06 00:51:20;;;;;;;12.95;1.17;;;4.60;99.90;;;;;;5134295;28;20122;-75
2022/01/06 00:53:46;;;;;;;10.02;1.55;;;4.60;99.90;;;;;;5134234;28;20142;-75
2022/01/06 00:56:12;;;;;;;9.77;1.27;;;4.50;99.90;;;;;;5134271;28;20452;-75
2022/01/06 00:58:37;;;;;;;6.50;1.02;;;5.00;99.90;;;;;;5100013;27;20379;-75
2022/01/06 01:01:03;;;;;;;8.88;1.00;;;5.30;99.90;;;;;;5138442;27;20055;-75
2022/01/06 01:03:29;;;;;;;7.68;1.10;;;4.50;99.90;;;;;;5138517;27;20059;-75
2022/01/06 01:05:56;;;;;;;6.57;0.90;;;4.40;99.90;;;;;;5119892;27;20039;-74
2022/01/06 01:08:23;;;;;;;8.30;1.30;;;4.90;99.90;;;;;;5119805;27;20046;-75
2022/01/06 01:10:51;;;;;;;7.32;0.90;;;4.60;99.90;;;;;;5138661;27;20051;-75
2022/01/06 01:13:27;;;;;;;8.50;0.98;;;4.70;99.90;;;;;;5102685;27;20494;-75
2022/01/06 01:15:55;;;;;;;9.27;1.00;;;4.70;99.90;;;;;;5120577;27;20066;-75
2022/01/06 01:18:22;;;;;;;9.48;0.82;;;4.60;99.90;;;;;;5138277;27;20376;-75
2022/01/06 01:20:50;;;;;;;9.60;1.10;;;4.70;99.90;;;;;;5137952;27;20043;-75
2022/01/06 01:23:16;;;;;;;9.07;1.27;;;4.60;99.90;;;;;;5119539;27;20049;-75
2022/01/06 01:25:42;;;;;;;9.05;1.15;;;4.70;99.90;;;;;;5137862;27;20062;-75
2022/01/06 01:28:10;;;;;;;8.50;1.15;;;4.80;99.90;;;;;;5137755;27;20043;-75
2022/01/06 01:33:25;;;;;;;7.72;0.95;;;4.50;99.90;;;;;;5098639;27;20050;-74
2022/01/06 01:35:51;;;;;;;11.57;1.00;;;4.40;99.90;;;;;;5137597;27;20043;-75
2022/01/06 01:38:16;;;;;;;6.63;1.10;;;4.60;99.90;;;;;;5137528;27;20479;-74
2022/01/06 01:40:42;;;;;;;7.55;1.20;;;5.00;99.90;;;;;;5138336;27;20122;-74
2022/01/06 01:43:08;;;;;;;9.85;1.02;;;4.40;99.90;;;;;;5137150;27;20050;-75
2022/01/06 01:45:34;;;;;;;4.97;0.98;;;5.30;99.90;;;;;;5119606;27;20047;-74
2022/01/06 01:48:05;;;;;;;6.70;1.00;;;4.10;99.90;;;;;;5119061;27;20043;-74
2022/01/06 01:50:31;;;;;;;7.80;0.85;;;4.40;99.90;;;;;;5137424;27;20035;-74
2022/01/06 01:52:57;;;;;;;12.23;1.30;;;4.40;99.90;;;;;;5119044;27;20039;-74
2022/01/06 01:55:29;;;;;;;6.80;1.67;;;4.40;99.90;;;;;;5137245;27;20079;-74
2022/01/06 01:57:56;;;;;;;6.28;0.82;;;4.20;99.90;;;;;;5137808;27;20050;-74
2022/01/06 02:00:24;;;;;;;6.20;0.85;;;4.60;99.90;;;;;;5137311;27;20196;-74
2022/01/06 02:02:50;;;;;;;8.05;1.05;;;4.30;99.90;;;;;;5102250;27;20043;-74
2022/01/06 02:05:24;;;;;;;6.18;1.13;;;4.10;99.90;;;;;;5119719;27;20069;-74
2022/01/06 02:07:50;;;;;;;3.42;0.80;;;4.00;99.90;;;;;;5104047;27;20149;-74
2022/01/06 02:10:16;;;;;;;5.60;0.80;;;4.00;99.90;;;;;;5117645;28;20482;-74
2022/01/06 02:12:43;;;;;;;8.48;1.45;;;4.20;99.90;;;;;;5118336;27;20433;-74
2022/01/06 02:15:11;;;;;;;8.32;1.02;;;4.10;99.90;;;;;;5137493;27;20046;-74
2022/01/06 02:17:38;;;;;;;7.65;1.00;;;3.80;99.90;;;;;;5118611;27;20052;-74
2022/01/06 02:20:30;;;;;;;9.27;0.75;;;3.90;99.90;;;;;;5084714;27;20047;-74
2022/01/06 02:22:56;;;;;;;7.03;0.90;;;5.00;99.90;;;;;;5131775;27;20057;-74
2022/01/06 02:25:26;;;;;;;8.75;1.40;;;3.90;99.90;;;;;;5118846;27;20379;-74
2022/01/06 02:27:53;;;;;;;4.80;0.90;;;3.90;99.90;;;;;;5118474;27;20039;-74
2022/01/06 02:30:23;;;;;;;6.25;1.08;;;4.10;99.90;;;;;;5136575;27;20051;-74
2022/01/06 02:32:49;;;;;;;4.82;0.90;;;4.10;99.90;;;;;;5117935;27;20096;-74
2022/01/06 02:35:18;;;;;;;5.20;0.80;;;4.30;99.90;;;;;;5137049;27;20039;-74
2022/01/06 02:37:44;;;;;;;6.20;0.90;;;4.20;99.90;;;;;;5118219;27;20126;-74
2022/01/06 02:40:14;;;;;;;5.53;0.65;;;3.70;99.90;;;;;;5118306;27;20126;-74
2022/01/06 02:42:50;;;;;;;3.53;0.85;;;4.00;99.90;;;;;;5118303;27;20054;-74
2022/01/06 02:45:17;;;;;;;2.55;0.38;;;3.80;99.90;;;;;;5118069;27;20103;-74
2022/01/06 02:47:44;;;;;;;1.25;0.40;;;4.60;99.90;;;;;;5118106;27;20479;-74
2022/01/06 02:50:11;;;;;;;5.72;0.40;;;3.90;99.90;;;;;;5117817;27;20600;-75
2022/01/06 02:52:37;;;;;;;3.42;0.30;;;4.00;99.90;;;;;;5137164;27;20035;-74
2022/01/06 02:55:05;;;;;;;1.20;0.10;;;4.10;99.90;;;;;;5100591;27;20585;-74
2022/01/06 02:57:31;;;;;;;3.83;0.40;;;3.60;99.90;;;;;;5117978;27;20158;-74
2022/01/06 02:59:56;;;;;;;0.82;0.20;;;3.90;99.90;;;;;;5135678;27;20508;-74
2022/01/06 03:02:22;;;;;;;2.35;0.38;;;3.80;99.90;;;;;;5117665;27;20122;-74
2022/01/06 03:04:48;;;;;;;2.35;0.30;;;3.80;99.90;;;;;;5117706;27;20121;-74
2022/01/06 03:07:14;;;;;;;1.33;0.30;;;3.70;99.90;;;;;;5135827;27;20054;-74
2022/01/06 03:09:42;;;;;;;1.13;0.40;;;3.70;99.90;;;;;;5117637;27;20384;-74
2022/01/06 03:12:23;;;;;;;3.65;0.45;;;4.00;99.90;;;;;;5117815;27;20047;-74
2022/01/06 03:14:48;;;;;;;0.70;0.20;;;4.00;99.90;;;;;;5117973;27;20130;-74
2022/01/06 03:17:14;;;;;;;4.63;0.40;;;3.70;99.90;;;;;;5135681;27;20466;-74
2022/01/06 03:19:40;;;;;;;1.63;0.22;;;3.70;99.90;;;;;;5117221;27;20042;-74
2022/01/06 03:22:06;;;;;;;2.65;0.20;;;5.00;99.90;;;;;;5116767;27;20448;-74
2022/01/06 03:24:32;;;;;;;3.25;0.30;;;4.30;99.90;;;;;;5117815;27;20051;-74
2022/01/06 03:26:58;;;;;;;0.73;0.20;;;3.70;99.90;;;;;;5135506;27;20050;-74
2022/01/06 03:29:23;;;;;;;2.70;0.20;;;3.50;99.90;;;;;;5135372;27;20042;-74
2022/01/06 03:31:49;;;;;;;2.70;0.30;;;3.50;99.90;;;;;;5100089;27;20498;-74
2022/01/06 03:34:15;;;;;;;1.73;0.20;;;3.30;99.90;;;;;;5117440;27;20051;-75
2022/01/06 03:36:41;;;;;;;1.90;0.28;;;3.50;99.90;;;;;;5135234;27;20039;-74
2022/01/06 03:39:07;;;;;;;2.50;0.20;;;3.20;99.90;;;;;;5117353;27;20047;-74
2022/01/06 03:41:33;;;;;;;1.70;0.30;;;3.30;99.90;;;;;;5100156;27;20042;-74
2022/01/06 03:43:59;;;;;;;1.05;0.20;;;3.30;99.90;;;;;;5116847;27;20083;-74
2022/01/06 03:46:25;;;;;;;1.90;0.20;;;3.40;99.90;;;;;;5135096;27;20047;-74
2022/01/06 03:48:51;;;;;;;1.55;0.30;;;3.50;99.90;;;;;;5135099;27;20054;-74
2022/01/06 03:51:20;;;;;;;4.03;0.38;;;4.20;99.90;;;;;;5134937;27;20039;-74
2022/01/06 03:53:47;;;;;;;2.38;0.30;;;3.30;99.90;;;;;;5135455;27;20046;-74
2022/01/06 03:56:13;;;;;;;2.00;0.30;;;3.40;99.90;;;;;;5134977;27;20051;-74
2022/01/06 03:58:40;;;;;;;0.88;0.10;;;3.20;99.90;;;;;;5100556;27;20047;-74
2022/01/06 04:01:08;;;;;;;1.50;0.20;;;3.20;99.90;;;;;;5116381;27;20055;-74
2022/01/06 04:03:34;;;;;;;5.65;0.40;;;2.90;99.90;;;;;;5116509;27;20036;-74
2022/01/06 04:06:00;;;;;;;1.30;0.38;;;2.90;99.90;;;;;;5134757;27;20039;-74
2022/01/06 04:08:25;;;;;;;1.67;0.30;;;2.90;99.90;;;;;;5134771;27;20460;-74
2022/01/06 04:10:51;;;;;;;3.92;0.35;;;3.00;99.90;;;;;;5116511;27;20092;-74
2022/01/06 04:13:17;;;;;;;0.47;0.20;;;3.10;99.90;;;;;;5116419;28;20043;-74
2022/01/06 04:15:44;;;;;;;3.08;0.30;;;3.00;99.90;;;;;;5134720;27;20127;-75
2022/01/06 04:18:10;;;;;;;1.27;0.20;;;2.80;99.90;;;;;;5116650;27;20055;-74
2022/01/06 04:20:36;;;;;;;1.23;0.30;;;3.20;99.90;;;;;;5116182;28;20043;-74
2022/01/06 04:23:02;;;;;;;3.78;0.60;;;2.70;99.90;;;;;;5116738;27;20054;-75
2022/01/06 04:25:27;;;;;;;2.58;0.20;;;3.40;99.90;;;;;;5115893;27;20043;-74
2022/01/06 04:27:53;;;;;;;2.00;0.30;;;2.80;99.90;;;;;;5116366;28;20046;-74
2022/01/06 04:30:19;;;;;;;3.80;0.30;;;2.90;99.90;;;;;;5135094;28;20043;-74
2022/01/06 04:32:45;;;;;;;4.63;0.50;;;2.80;99.90;;;;;;5134498;27;20459;-74
2022/01/06 04:35:11;;;;;;;2.42;0.30;;;3.00;99.90;;;;;;5137611;27;20039;-74
2022/01/06 04:37:37;;;;;;;1.15;0.32;;;3.00;99.90;;;;;;5120584;27;20073;-74
2022/01/06 04:40:05;;;;;;;3.10;0.40;;;3.20;99.90;;;;;;5138780;27;20065;-74
2022/01/06 04:42:31;;;;;;;1.38;0.40;;;2.70;99.90;;;;;;5120378;27;20092;-74
2022/01/06 04:44:56;;;;;;;1.50;0.35;;;3.00;99.90;;;;;;5120346;27;20079;-75
2022/01/06 04:47:22;;;;;;;1.48;0.40;;;2.70;99.90;;;;;;5138352;27;20046;-74
2022/01/06 04:49:48;;;;;;;1.75;0.30;;;3.80;99.90;;;;;;5120471;27;20126;-74
2022/01/06 04:52:14;;;;;;;2.72;0.55;;;2.60;99.90;;;;;;5138461;27;20035;-74
2022/01/06 04:54:40;;;;;;;1.65;0.40;;;2.90;99.90;;;;;;5138536;27;20381;-74
2022/01/06 04:57:06;;;;;;;4.32;0.63;;;2.90;99.90;;;;;;5119962;27;20047;-74
2022/01/06 04:59:31;;;;;;;4.75;0.50;;;2.30;99.90;;;;;;5120226;27;20050;-74
2022/01/06 05:01:57;;;;;;;0.82;0.30;;;2.50;99.90;;;;;;5102748;27;20058;-74
2022/01/06 05:04:23;;;;;;;3.22;0.40;;;2.80;99.90;;;;;;5138282;27;20043;-74
2022/01/06 05:06:51;;;;;;;2.60;0.40;;;2.80;99.90;;;;;;5138394;27;20051;-74
2022/01/06 05:09:17;;;;;;;2.45;0.40;;;2.50;99.90;;;;;;5103362;27;20502;-74
2022/01/06 05:11:43;;;;;;;4.55;0.52;;;2.40;99.90;;;;;;5138420;27;20039;-74
2022/01/06 05:14:08;;;;;;;3.60;0.40;;;3.00;99.90;;;;;;5138555;27;20039;-74
2022/01/06 05:16:34;;;;;;;3.90;0.50;;;2.90;99.90;;;;;;5120008;27;20082;-74
2022/01/06 05:19:00;;;;;;;2.47;0.70;;;2.40;99.90;;;;;;5102912;27;20401;-74
2022/01/06 05:21:29;;;;;;;3.13;0.70;;;2.30;99.90;;;;;;5137594;27;20043;-74
2022/01/06 05:23:55;;;;;;;4.55;0.57;;;2.40;99.90;;;;;;5137831;27;20051;-74
2022/01/06 05:26:21;;;;;;;3.38;0.60;;;3.50;99.90;;;;;;5119529;27;20135;-74
2022/01/06 05:28:47;;;;;;;2.80;0.50;;;2.60;99.90;;;;;;5102956;27;20516;-74
2022/01/06 05:31:13;;;;;;;5.15;0.60;;;2.70;99.90;;;;;;5137829;27;20043;-74
2022/01/06 05:33:39;;;;;;;4.22;0.50;;;2.10;99.90;;;;;;5137333;27;20479;-74
2022/01/06 05:36:05;;;;;;;4.72;0.70;;;2.70;99.90;;;;;;5137569;27;20096;-74
2022/01/06 05:38:31;;;;;;;7.28;1.02;;;2.30;99.90;;;;;;5119209;27;20043;-74
2022/01/06 05:40:56;;;;;;;4.50;0.88;;;2.40;99.90;;;;;;5137280;27;20045;-74
2022/01/06 05:43:23;;;;;;;3.10;0.60;;;2.90;99.90;;;;;;5102521;27;20055;-74
2022/01/06 05:45:54;;;;;;;3.65;0.50;;;2.30;99.90;;;;;;5119048;27;20043;-74
2022/01/06 05:48:20;;;;;;;4.50;0.60;;;2.70;99.90;;;;;;5119625;27;20050;-74
2022/01/06 05:50:49;;;;;;;2.25;0.52;;;3.40;99.90;;;;;;5119140;27;20142;-74
2022/01/06 05:53:19;;;;;;;5.45;0.63;;;2.60;99.90;;;;;;5137468;27;20471;-75
2022/01/06 05:55:45;;;;;;;7.10;0.80;;;2.70;99.90;;;;;;5137328;27;20055;-74
2022/01/06 05:58:11;;;;;;;8.52;0.85;;;2.10;99.90;;;;;;5138042;27;20047;-74
2022/01/06 06:00:36;;;;;;;4.25;0.80;;;2.10;99.90;;;;;;5137144;27;20506;-74
2022/01/06 06:03:03;;;;;;;6.40;0.80;;;2.20;99.90;;;;;;5118942;27;20127;-74
2022/01/06 06:05:28;;;;;;;7.18;1.02;;;2.20;99.90;;;;;;5136987;27;20053;-74
2022/01/06 06:07:54;;;;;;;6.05;0.90;;;2.20;99.90;;;;;;5136932;27;20129;-74
2022/01/06 06:10:20;;;;;;;8.32;1.08;;;2.20;99.90;;;;;;5118740;27;20043;-75
2022/01/06 06:12:48;;;;;;;6.90;1.02;;;2.40;99.90;;;;;;5136567;27;20040;-74
2022/01/06 06:15:14;;;;;;;6.03;0.93;;;3.00;99.90;;;;;;5136845;27;20082;-74
2022/01/06 06:17:40;;;;;;;9.10;1.45;;;2.50;99.90;;;;;;5118743;27;20469;-74
2022/01/06 06:20:06;;;;;;;7.65;0.95;;;3.40;99.90;;;;;;5101824;27;20047;-74
2022/01/06 06:22:32;;;;;;;8.93;0.60;;;2.30;99.90;;;;;;5118383;27;20551;-75
2022/01/06 06:24:57;;;;;;;5.65;0.80;;;2.70;99.90;;;;;;5118480;27;20051;-75
2022/01/06 06:27:23;;;;;;;8.40;1.15;;;3.00;99.90;;;;;;5118711;27;20107;-74
2022/01/06 06:29:49;;;;;;;9.80;0.98;;;2.40;99.90;;;;;;5137197;27;20375;-75
2022/01/06 06:32:15;;;;;;;6.95;1.00;;;3.10;99.90;;;;;;5136489;27;20043;-74
2022/01/06 06:34:40;;;;;;;5.47;1.10;;;2.30;99.90;;;;;;5137097;27;20103;-74
2022/01/06 06:37:06;;;;;;;6.38;1.42;;;3.20;99.90;;;;;;5136408;27;20070;-75
2022/01/06 06:39:32;;;;;;;9.65;1.67;;;2.30;99.90;;;;;;5118273;27;20122;-75
2022/01/06 06:41:58;;;;;;;6.25;1.10;;;2.80;99.90;;;;;;5136586;27;20050;-74
2022/01/06 06:44:23;;;;;;;7.55;1.35;;;3.00;99.90;;;;;;5136379;27;20500;-74
2022/01/06 06:46:49;;;;;;;10.85;1.20;;;2.70;99.90;;;;;;5136490;27;20047;-75
2022/01/06 06:49:14;;;;;;;7.00;1.40;;;3.00;99.90;;;;;;5118168;27;20042;-75
2022/01/06 06:51:40;;;;;;;10.25;1.92;;;1.80;99.90;;;;;;5135852;27;20039;-75
2022/01/06 06:54:06;;;;;;;9.20;1.90;;;2.80;99.90;;;;;;5136095;27;20105;-74
2022/01/06 06:56:32;;;;;;;11.00;2.95;;;1.90;99.90;;;;;;5135444;27;20112;-74
2022/01/06 06:58:58;;;;;;;11.85;3.05;;;2.00;99.90;;;;;;5117455;27;20039;-75
2022/01/06 07:01:23;;;;;;;8.82;1.80;;;1.90;99.90;;;;;;5117200;27;20055;-75
2022/01/06 07:03:49;;;;;;;7.63;1.40;;;3.20;99.90;;;;;;5117570;27;20479;-74
2022/01/06 07:06:15;;;;;;;7.82;1.13;;;2.50;99.90;;;;;;5136051;27;20043;-74
2022/01/06 07:08:40;;;;;;;6.65;1.38;;;1.80;99.90;;;;;;5100423;27;20039;-74
2022/01/06 07:11:06;;;;;;;5.13;1.13;;;2.20;99.90;;;;;;5136573;27;20094;-74
2022/01/06 07:13:32;;;;;;;7.38;1.17;;;1.90;99.90;;;;;;5100348;27;20039;-74
2022/01/06 07:15:58;;;;;;;8.70;1.40;;;1.90;99.90;;;;;;5136245;27;20055;-74
2022/01/06 07:18:23;;;;;;;8.98;1.25;;;2.20;99.90;;;;;;5067413;27;20100;-74
2022/01/06 07:20:49;;;;;;;6.60;1.08;;;2.80;99.90;;;;;;5135903;27;20179;-74
2022/01/06 07:23:15;;;;;;;8.13;1.30;;;2.00;99.90;;;;;;5135479;27;20035;-74
2022/01/06 07:25:40;;;;;;;12.05;1.77;;;2.20;99.90;;;;;;5117628;27;20058;-74
2022/01/06 07:28:06;;;;;;;9.82;0.95;;;1.90;99.90;;;;;;5117302;27;20043;-74
2022/01/06 07:30:33;;;;;;;6.65;1.33;;;2.10;99.90;;;;;;5135583;27;20042;-74
2022/01/06 07:33:00;;;;;;;8.05;1.10;;;2.10;99.90;;;;;;5135561;27;20040;-74
2022/01/06 07:35:26;;;;;;;8.02;0.95;;;2.10;99.90;;;;;;5135919;27;20039;-75
2022/01/06 07:37:52;;;;;;;5.93;1.00;;;2.00;99.90;;;;;;5117296;27;20496;-74
2022/01/06 07:40:19;;;;;;;5.60;0.88;;;2.00;99.90;;;;;;5135504;27;20483;-74
2022/01/06 07:42:46;;;;;;;7.55;1.02;;;2.00;99.90;;;;;;5116787;27;20055;-74
2022/01/06 07:45:12;;;;;;;7.40;1.30;;;1.90;99.90;;;;;;5134809;27;20551;-74
2022/01/06 07:47:53;;;;;;;8.88;1.13;;;2.20;99.90;;;;;;5116941;27;20043;-75
2022/01/06 07:50:20;;;;;;;7.45;1.35;;;2.00;99.90;;;;;;5135075;27;20054;-74
2022/01/06 07:52:45;;;;;;;7.68;1.48;;;2.10;99.90;;;;;;5135498;27;20043;-75
2022/01/06 07:55:11;;;;;;;8.70;1.83;;;2.00;99.90;;;;;;5117139;27;20069;-75
2022/01/06 07:57:37;;;;;;;8.38;1.55;;;2.10;99.90;;;;;;5135492;27;20043;-75
2022/01/06 08:00:03;;;;;;;11.63;1.30;;;2.40;99.90;;;;;;5116534;27;20086;-74
2022/01/06 08:02:29;;;;;;;9.18;1.48;;;2.00;99.90;;;;;;5135022;27;20046;-74
2022/01/06 08:04:55;;;;;;;9.68;1.48;;;2.00;99.90;;;;;;5117025;27;20043;-74
2022/01/06 08:07:21;;;;;;;7.50;1.35;;;2.70;99.90;;;;;;5116524;27;20391;-74
2022/01/06 08:09:47;;;;;;;8.48;1.40;;;2.60;99.90;;;;;;5116908;27;20471;-75
2022/01/06 08:12:13;;;;;;;6.22;1.20;;;2.70;99.90;;;;;;5134906;27;20055;-75
2022/01/06 08:14:38;;;;;;;8.10;1.25;;;2.70;99.90;;;;;;5134738;27;20506;-75
2022/01/06 08:17:04;;;;;;;7.13;1.70;;;2.00;99.90;;;;;;5116626;27;20100;-76
2022/01/06 08:19:30;;;;;;;8.63;1.58;;;2.00;99.90;;;;;;5137329;27;20125;-74
2022/01/06 08:21:56;;;;;;;8.38;2.25;;;1.90;99.90;;;;;;5118882;27;20092;-75
2022/01/06 08:24:22;;;;;;;10.10;2.63;;;2.10;99.90;;;;;;5116449;27;20046;-74
2022/01/06 08:26:48;;;;;;;5.65;1.80;;;1.90;99.90;;;;;;5134705;27;20039;-76
2022/01/06 08:29:14;;;;;;;10.63;2.03;;;2.20;99.90;;;;;;5134713;28;20054;-74
2022/01/06 08:31:39;;;;;;;10.50;1.95;;;2.10;99.90;;;;;;5134707;28;20043;-75
2022/01/06 08:34:05;;;;;;;8.18;2.40;;;2.10;99.90;;;;;;5116246;28;20127;-75
2022/01/06 08:36:31;;;;;;;9.10;2.35;;;2.40;99.90;;;;;;5134567;28;20051;-75
2022/01/06 08:38:57;;;;;;;13.77;2.10;;;2.00;99.90;;;;;;5118112;28;20039;-73
2022/01/06 08:41:22;;;;;;;7.25;1.95;;;2.00;99.90;;;;;;5136294;28;20047;-74
2022/01/06 08:43:48;;;;;;;9.52;2.00;;;2.60;99.90;;;;;;5134570;28;20376;-75
2022/01/06 08:46:14;;;;;;;7.80;1.67;;;2.00;99.90;;;;;;5134505;28;20043;-73
2022/01/06 08:48:40;;;;;;;7.53;1.63;;;2.70;99.90;;;;;;5116412;28;20078;-73
2022/01/06 08:51:05;;;;;;;9.20;1.40;;;2.60;99.90;;;;;;5134460;28;20086;-74
2022/01/06 08:53:31;;;;;;;12.25;1.52;;;2.80;99.90;;;;;;5134308;28;20047;-73
2022/01/06 08:55:57;;;;;;;7.47;1.70;;;2.20;99.90;;;;;;5134991;28;20047;-74
2022/01/06 08:58:23;;;;;;;11.52;2.38;;;2.00;99.90;;;;;;5134434;28;20039;-74
2022/01/06 09:00:49;;;;;;;6.97;2.03;;;2.60;99.90;;;;;;5134413;28;20130;-74
2022/01/06 09:03:15;;;;;;;8.25;2.03;;;2.40;99.90;;;;;;5116707;28;20398;-73
2022/01/06 09:05:40;;;;;;;14.25;2.45;;;3.00;99.90;;;;;;5099329;28;20130;-74
2022/01/06 09:08:07;;;;;;;9.05;2.00;;;2.60;99.90;;;;;;5134330;28;20043;-80
2022/01/06 09:10:34;;;;;;;13.93;1.95;;;2.60;99.90;;;;;;5134348;28;20122;-74
2022/01/06 09:13:04;;;;;;;11.38;1.55;;;2.70;99.90;;;;;;5134500;28;20047;-72
2022/01/06 09:15:30;;;;;;;8.63;1.80;;;2.80;99.90;;;;;;5134226;28;20101;-78
2022/01/06 09:17:56;;;;;;;10.05;1.60;;;2.30;99.90;;;;;;5116515;28;20043;-77
2022/01/06 09:20:22;;;;;;;8.23;1.45;;;2.30;99.90;;;;;;5117473;27;20493;-76
2022/01/06 09:22:48;;;;;;;5.15;1.35;;;2.40;99.90;;;;;;5103884;27;20047;-77
2022/01/06 09:25:15;;;;;;;5.75;0.90;;;2.70;99.90;;;;;;5138233;27;20054;-78
2022/01/06 09:27:42;;;;;;;10.25;1.30;;;2.70;99.90;;;;;;5137937;27;20505;-77
2022/01/06 09:30:08;;;;;;;10.02;1.50;;;2.30;99.90;;;;;;5137977;27;20051;-76
2022/01/06 09:32:35;;;;;;;10.32;1.90;;;2.60;99.90;;;;;;5119343;27;20122;-78
2022/01/06 09:35:01;;;;;;;6.22;1.20;;;2.80;99.90;;;;;;5137897;27;20142;-76
2022/01/06 09:37:27;;;;;;;9.60;2.33;;;3.00;99.90;;;;;;5120414;27;20099;-76
2022/01/06 09:39:53;;;;;;;11.55;2.22;;;3.00;99.90;;;;;;5119590;27;20039;-76
2022/01/06 09:42:20;;;;;;;6.65;1.55;;;2.70;99.90;;;;;;5137983;27;20039;-79
2022/01/06 09:44:50;;;;;;;7.03;1.38;;;2.60;99.90;;;;;;5120124;27;20348;-79
2022/01/06 09:47:17;;;;;;;10.15;1.20;;;3.40;99.90;;;;;;5138448;27;20134;-74
2022/01/06 09:49:44;;;;;;;11.25;1.83;;;2.90;99.90;;;;;;5137633;27;20406;-78
2022/01/06 09:52:11;;;;;;;9.43;1.40;;;2.60;99.90;;;;;;5137800;27;20104;-77
2022/01/06 09:54:38;;;;;;;8.02;1.52;;;3.60;99.90;;;;;;5137524;27;20043;-77
2022/01/06 09:57:05;;;;;;;9.52;1.85;;;3.00;99.90;;;;;;5119313;27;20113;-76
2022/01/06 09:59:31;;;;;;;7.97;1.23;;;2.90;99.90;;;;;;5137324;27;20376;-79
2022/01/06 10:01:58;;;;;;;11.23;1.48;;;3.00;99.90;;;;;;5138173;27;20141;-82
2022/01/06 10:04:28;;;;;;;8.27;1.73;;;2.90;99.90;;;;;;5137299;27;20130;-82
2022/01/06 10:07:20;;;;;;;8.43;1.45;;;2.80;99.90;;;;;;5118852;27;20082;-83
2022/01/06 10:09:46;;;;;;;9.45;1.25;;;3.30;99.90;;;;;;5114097;27;20043;-79
2022/01/06 10:12:13;;;;;;;7.13;1.70;;;3.10;99.90;;;;;;5137011;27;20095;-84
2022/01/06 10:14:50;;;;;;;11.10;1.70;;;3.10;99.90;;;;;;5118977;27;20087;-80
2022/01/06 10:17:33;;;;;;;7.15;1.40;;;3.50;99.90;;;;;;5119554;27;20116;-78
2022/01/06 10:20:11;;;;;;;12.73;3.05;;;3.80;99.90;;;;;;5137573;27;20138;-80
2022/01/06 10:22:48;;;;;;;7.53;1.58;;;3.20;99.90;;;;;;5101807;27;20050;-79
2022/01/06 10:25:15;;;;;;;11.13;1.55;;;3.90;99.90;;;;;;5137175;27;20114;-80
2022/01/06 10:27:41;;;;;;;11.85;1.33;;;4.30;99.90;;;;;;5136799;27;20047;-80
2022/01/06 10:30:08;;;;;;;8.38;1.90;;;3.30;99.90;;;;;;5136771;27;20039;-79
2022/01/06 10:32:34;;;;;;;10.57;1.80;;;3.20;99.90;;;;;;5117431;27;20049;-80
2022/01/06 10:35:03;;;;;;;6.85;1.23;;;3.40;99.90;;;;;;5136684;27;20543;-80
2022/01/06 10:37:40;;;;;;;8.50;1.45;;;3.70;99.90;;;;;;5102200;27;20042;-79
2022/01/06 10:40:22;;;;;;;13.07;2.17;;;3.40;99.90;;;;;;5136613;27;20047;-79
2022/01/06 10:42:51;;;;;;;14.77;1.98;;;3.30;99.90;;;;;;5118038;27;20088;-78
2022/01/06 10:45:25;;;;;;;10.50;1.58;;;3.60;99.90;;;;;;5119099;27;20051;-80
2022/01/06 10:47:54;;;;;;;6.28;1.30;;;3.40;99.90;;;;;;5136459;27;20054;-80
2022/01/06 10:50:24;;;;;;;12.27;1.40;;;4.00;99.90;;;;;;5136117;27;20487;-79
2022/01/06 10:52:57;;;;;;;8.43;1.58;;;3.50;99.90;;;;;;5136188;27;20045;-80
2022/01/06 10:55:30;;;;;;;;;;;3.50;99.90;;;;;;5119504;27;20108;-79
2022/01/06 10:58:00;;;;;;;;;;;3.60;99.90;;;;;;5136383;27;19919;-80
2022/01/06 11:00:32;;;;;;;9.45;1.40;;;3.70;99.90;;;;;;5097384;28;20370;-79
2022/01/06 11:03:19;;;;;;;10.23;1.70;;;3.80;99.90;;;;;;5114727;28;20522;-81
2022/01/06 11:05:50;;;;;;;11.45;1.40;;;4.70;99.90;;;;;;5115569;28;20053;-81
2022/01/06 11:08:21;;;;;;;8.07;1.30;;;3.80;99.90;;;;;;5115749;28;20418;-81
2022/01/06 11:11:13;;;;;;;13.65;1.45;;;3.90;99.90;;;;;;5113521;28;20051;-83
2022/01/06 11:13:49;;;;;;;9.75;1.48;;;4.30;99.90;;;;;;5111728;28;20050;-81
2022/01/06 11:16:17;;;;;;;7.32;1.55;;;3.90;99.90;;;;;;5111725;28;20059;-77
2022/01/06 11:18:52;;;;;;;11.18;1.40;;;4.00;99.90;;;;;;5078449;28;20085;-79
2022/01/06 11:21:23;;;;;;;9.23;1.63;;;4.10;99.90;;;;;;5112924;28;20039;-82
2022/01/06 11:24:03;;;;;;;7.28;1.17;;;4.30;99.90;;;;;;5113051;28;20039;-80
2022/01/06 11:26:29;;;;;;;8.30;1.40;;;4.50;99.90;;;;;;5094486;28;20126;-79
2022/01/06 11:28:58;;;;;;;9.70;1.55;;;4.20;99.90;;;;;;5110861;28;20515;-83
2022/01/06 11:31:34;;;;;;;11.50;2.30;;;4.60;99.90;;;;;;5110846;28;20046;-77
2022/01/06 11:34:11;;;;;;;8.90;1.60;;;4.60;99.90;;;;;;5110979;28;20141;-77
2022/01/06 11:36:37;;;;;;;10.85;1.35;;;5.00;99.90;;;;;;5094854;28;20528;-80
2022/01/06 11:39:06;;;;;;;8.73;1.40;;;4.50;99.90;;;;;;5111352;28;20082;-78
2022/01/06 11:41:42;;;;;;;8.52;1.25;;;4.80;99.90;;;;;;5113670;28;20393;-81
2022/01/06 11:44:23;;;;;;;6.53;1.13;;;4.50;99.90;;;;;;5110615;28;20100;-83
2022/01/06 11:46:52;;;;;;;10.80;1.38;;;4.80;99.90;;;;;;5111195;28;20052;-82
2022/01/06 11:49:42;;;;;;;13.93;1.25;;;4.60;99.90;;;;;;5098921;28;20593;-83
2022/01/06 11:52:11;;;;;;;11.20;1.45;;;4.60;99.90;;;;;;5098349;28;20056;-83
2022/01/06 11:54:54;;;;;;;14.13;1.45;;;4.60;99.90;;;;;;5111222;28;20054;-78
2022/01/06 11:57:40;;;;;;;8.45;1.15;;;5.10;99.90;;;;;;5112496;28;20074;-78
2022/01/06 12:00:26;;;;;;;12.18;1.55;;;4.80;99.90;;;;;;5114180;27;20043;-78
2022/01/06 12:03:00;;;;;;;12.50;1.30;;;5.20;99.90;;;;;;5115414;27;20039;-84
2022/01/06 12:05:26;;;;;;;10.43;1.33;;;4.90;99.90;;;;;;5114331;27;20082;-85
2022/01/06 12:07:53;;;;;;;11.10;1.58;;;5.00;99.90;;;;;;5132651;27;20493;-78
2022/01/06 12:10:20;;;;;;;10.77;1.33;;;5.00;99.90;;;;;;5114283;27;20050;-78
2022/01/06 12:12:50;;;;;;;10.57;1.73;;;5.00;99.90;;;;;;5097716;27;20034;-82
2022/01/06 12:15:18;;;;;;;10.45;1.58;;;5.10;99.90;;;;;;5115082;28;20078;-79
2022/01/06 12:17:47;;;;;;;8.68;1.70;;;5.20;99.90;;;;;;5114501;28;20035;-79
2022/01/06 12:20:22;;;;;;;8.93;1.70;;;5.90;99.90;;;;;;5132872;27;20072;-78
2022/01/06 12:22:49;;;;;;;8.48;1.50;;;5.30;99.90;;;;;;5114447;27;20369;-77
2022/01/06 12:25:14;;;;;;;6.25;1.20;;;5.20;99.90;;;;;;5131443;27;20572;-81
2022/01/06 12:27:48;;;;;;;12.02;1.48;;;5.40;99.90;;;;;;5131977;27;20039;-80
2022/01/06 12:30:16;;;;;;;8.93;1.70;;;5.50;99.90;;;;;;5097400;28;20131;-83
2022/01/06 12:32:42;;;;;;;10.40;2.22;;;5.30;99.90;;;;;;5132202;28;20355;-83
2022/01/06 12:35:08;;;;;;;9.30;1.50;;;5.30;99.90;;;;;;5097633;28;20035;-81
2022/01/06 12:37:34;;;;;;;11.02;1.42;;;5.40;99.90;;;;;;5113979;28;20035;-78
2022/01/06 12:40:00;;;;;;;10.93;1.45;;;5.10;99.90;;;;;;5096556;28;20459;-78
2022/01/06 12:42:26;;;;;;;9.50;1.63;;;5.40;99.90;;;;;;5114449;28;20043;-82
2022/01/06 12:44:53;;;;;;;11.75;1.67;;;5.50;99.90;;;;;;5096369;28;20055;-79
2022/01/06 12:47:19;;;;;;;12.15;1.67;;;5.40;99.90;;;;;;5113148;28;20496;-82
2022/01/06 12:49:45;;;;;;;9.13;1.90;;;5.60;99.90;;;;;;5113724;28;20186;-78
2022/01/06 12:52:11;;;;;;;9.18;1.88;;;6.00;99.90;;;;;;5113369;28;20093;-81
2022/01/06 12:54:40;;;;;;;14.50;1.80;;;5.50;99.90;;;;;;5114420;27;20162;-83
2022/01/06 12:57:09;;;;;;;13.68;1.30;;;5.60;99.90;;;;;;5136760;27;20047;-79
2022/01/06 12:59:37;;;;;;;8.75;1.45;;;5.50;99.90;;;;;;5135807;27;20180;-83
2022/01/06 13:02:12;;;;;;;8.07;1.45;;;5.80;99.90;;;;;;5117335;27;20087;-78
2022/01/06 13:04:44;;;;;;;13.02;1.50;;;5.80;99.90;;;;;;5136218;27;20047;-80
2022/01/06 13:07:13;;;;;;;6.65;1.50;;;5.90;99.90;;;;;;5135815;27;20082;-83
2022/01/06 13:09:40;;;;;;;10.35;1.25;;;5.90;99.90;;;;;;5137012;27;20035;-81
2022/01/06 13:12:21;;;;;;;8.68;1.67;;;5.70;99.90;;;;;;5100862;27;20058;-80